Time,TemperatureF,DewpointF,PressureIn,WindDirection,WindDirectionDegrees,WindSpeedMPH,WindSpeedGustMPH,Humidity,HourlyPrecipIn,Conditions,Clouds,dailyrainin,SolarRadiationWatts/m^2,SoftwareType,DateUTC
2013-01-16 00:00:00,33.2,32.4,30.11,North,354,2.0,5.0,97,0.09,,,0.00,0,WeatherCatV1.11B39,2013-01-16 05:00:00,
2013-01-16 00:01:00,33.2,32.4,30.11,North,357,3.0,3.0,97,0.09,,,0.00,0,WeatherCatV1.11B39,2013-01-16 05:01:00,
2013-01-16 00:05:00,33.4,32.6,30.11,North,355,3.0,4.0,97,0.20,,,0.00,0,WeatherCatV1.11B39,2013-01-16 05:05:00,
2013-01-16 00:10:00,33.4,32.6,30.11,North,355,2.0,5.0,97,0.19,,,0.00,0,WeatherCatV1.11B39,2013-01-16 05:10:00,
2013-01-16 00:15:00,33.4,32.6,30.10,North,10,1.0,4.0,97,0.23,,,0.00,0,WeatherCatV1.11B39,2013-01-16 05:15:00,
2013-01-16 00:20:00,33.4,32.4,30.10,NNE,28,1.0,3.0,96,0.17,,,0.00,0,WeatherCatV1.11B39,2013-01-16 05:20:00,
2013-01-16 00:25:00,33.5,32.7,30.10,NE,34,1.0,0.0,97,0.16,,,0.00,0,WeatherCatV1.11B39,2013-01-16 05:25:00,
2013-01-16 00:30:00,33.5,32.7,30.08,NE,36,0.0,5.0,97,0.18,,,0.00,0,WeatherCatV1.11B39,2013-01-16 05:30:00,
2013-01-16 00:35:00,33.5,32.7,30.08,NNE,24,1.0,6.0,97,0.22,,,0.00,0,WeatherCatV1.11B39,2013-01-16 05:35:00,
2013-01-16 00:40:00,33.4,32.4,30.08,NNE,16,2.0,6.0,96,0.20,,,0.00,0,WeatherCatV1.11B39,2013-01-16 05:40:00,
2013-01-16 00:45:00,33.2,32.2,30.07,North,4,3.0,7.0,96,0.09,,,0.00,0,WeatherCatV1.11B39,2013-01-16 05:45:00,
2013-01-16 00:50:00,33.1,32.1,30.07,North,0,3.0,6.0,96,0.14,,,0.00,0,WeatherCatV1.11B39,2013-01-16 05:50:00,
2013-01-16 00:55:00,33.1,31.8,30.07,North,359,4.0,11.0,95,0.12,,,0.00,0,WeatherCatV1.11B39,2013-01-16 05:55:00,
2013-01-16 01:00:00,32.9,31.9,30.07,NNW,347,5.0,10.0,96,0.16,,,0.00,0,WeatherCatV1.11B39,2013-01-16 06:00:00,
2013-01-16 01:05:00,32.9,32.1,30.07,NNW,348,6.0,8.0,97,0.25,,,0.00,0,WeatherCatV1.11B39,2013-01-16 06:05:00,
2013-01-16 01:10:00,33.1,32.1,30.07,North,353,5.0,9.0,96,0.29,,,0.00,0,WeatherCatV1.11B39,2013-01-16 06:10:00,
2013-01-16 01:15:00,33.1,32.1,30.07,North,1,4.0,5.0,96,0.29,,,0.00,0,WeatherCatV1.11B39,2013-01-16 06:15:00,
2013-01-16 01:20:00,33.1,32.1,30.07,North,0,4.0,6.0,96,0.18,,,0.00,0,WeatherCatV1.11B39,2013-01-16 06:20:00,
2013-01-16 01:25:00,33.1,32.1,30.07,North,1,3.0,5.0,96,0.17,,,0.00,0,WeatherCatV1.11B39,2013-01-16 06:25:00,
2013-01-16 01:30:00,33.1,32.1,30.07,North,358,3.0,7.0,96,0.11,,,0.00,0,WeatherCatV1.11B39,2013-01-16 06:30:00,
2013-01-16 01:35:00,33.1,32.3,30.07,North,357,3.0,5.0,97,0.07,,,0.00,0,WeatherCatV1.11B39,2013-01-16 06:35:00,
2013-01-16 01:40:00,33.2,32.2,30.07,North,354,3.0,5.0,96,0.07,,,0.00,0,WeatherCatV1.11B39,2013-01-16 06:40:00,
2013-01-16 01:45:00,33.2,32.2,30.07,North,1,2.0,3.0,96,0.06,,,0.00,0,WeatherCatV1.11B39,2013-01-16 06:45:00,
2013-01-16 01:50:00,33.2,32.2,30.08,North,1,1.0,5.0,96,0.17,,,0.00,0,WeatherCatV1.11B39,2013-01-16 06:50:00,
2013-01-16 01:55:00,33.2,32.2,30.08,North,354,2.0,6.0,96,0.12,,,0.00,0,WeatherCatV1.11B39,2013-01-16 06:55:00,
2013-01-16 02:00:00,33.2,32.2,30.08,NNW,337,3.0,5.0,96,0.06,,,0.00,0,WeatherCatV1.11B39,2013-01-16 07:00:00,
2013-01-16 02:05:00,33.2,32.2,30.08,NNW,346,3.0,6.0,96,0.06,,,0.00,0,WeatherCatV1.11B39,2013-01-16 07:05:00,
2013-01-16 02:10:00,33.4,32.4,30.08,NNW,348,3.0,5.0,96,0.08,,,0.00,0,WeatherCatV1.11B39,2013-01-16 07:10:00,
2013-01-16 02:15:00,33.4,32.4,30.08,NNW,348,2.0,5.0,96,0.08,,,0.00,0,WeatherCatV1.11B39,2013-01-16 07:15:00,
2013-01-16 02:20:00,33.4,32.4,30.08,NNW,346,2.0,7.0,96,0.06,,,0.00,0,WeatherCatV1.11B39,2013-01-16 07:20:00,
2013-01-16 02:25:00,33.5,32.5,30.08,NNW,346,2.0,0.0,96,0.11,,,0.00,0,WeatherCatV1.11B39,2013-01-16 07:25:00,
2013-01-16 02:30:00,33.5,32.5,30.08,NNW,346,0.0,0.0,96,0.10,,,0.00,0,WeatherCatV1.11B39,2013-01-16 07:30:00,
2013-01-16 02:35:00,33.7,32.7,30.08,NNW,346,0.0,0.0,96,0.08,,,0.00,0,WeatherCatV1.11B39,2013-01-16 07:35:00,
2013-01-16 02:40:00,33.7,32.7,30.08,NNW,346,0.0,0.0,96,0.07,,,0.00,0,WeatherCatV1.11B39,2013-01-16 07:40:00,
2013-01-16 02:45:00,33.7,32.7,30.05,North,352,0.0,2.0,96,0.04,,,0.00,0,WeatherCatV1.11B39,2013-01-16 07:45:00,
2013-01-16 02:50:00,33.5,32.5,30.05,North,356,1.0,0.0,96,0.00,,,0.00,0,WeatherCatV1.11B39,2013-01-16 07:50:00,
2013-01-16 02:55:00,33.5,32.5,30.05,North,359,0.0,0.0,96,0.00,,,0.00,0,WeatherCatV1.11B39,2013-01-16 07:55:00,
2013-01-16 03:00:00,33.7,32.7,30.05,North,359,0.0,0.0,96,0.00,,,0.00,0,WeatherCatV1.11B39,2013-01-16 08:00:00,
2013-01-16 03:05:00,33.7,32.7,30.05,North,359,0.0,0.0,96,0.00,,,0.00,0,WeatherCatV1.11B39,2013-01-16 08:05:00,
2013-01-16 03:10:00,33.7,32.7,30.05,North,359,0.0,0.0,96,0.00,,,0.00,0,WeatherCatV1.11B39,2013-01-16 08:10:00,
2013-01-16 03:15:00,33.7,32.7,30.04,North,359,0.0,0.0,96,0.00,,,0.00,0,WeatherCatV1.11B39,2013-01-16 08:15:00,
2013-01-16 03:20:00,33.5,32.5,30.04,North,0,0.0,5.0,96,0.00,,,0.00,0,WeatherCatV1.11B39,2013-01-16 08:20:00,
2013-01-16 03:25:00,33.5,32.5,30.04,North,7,1.0,5.0,96,0.00,,,0.00,0,WeatherCatV1.11B39,2013-01-16 08:25:00,
2013-01-16 03:30:00,33.4,32.1,30.03,North,7,2.0,3.0,95,0.00,,,0.00,0,WeatherCatV1.11B39,2013-01-16 08:30:00,
2013-01-16 03:35:00,33.5,32.5,30.03,North,6,1.0,3.0,96,0.00,,,0.00,0,WeatherCatV1.11B39,2013-01-16 08:35:00,
2013-01-16 03:40:00,33.5,32.5,30.03,North,6,1.0,3.0,96,0.00,,,0.00,0,WeatherCatV1.11B39,2013-01-16 08:40:00,
2013-01-16 03:45:00,33.4,32.4,30.02,North,7,1.0,0.0,96,0.00,,,0.00,0,WeatherCatV1.11B39,2013-01-16 08:45:00,
2013-01-16 03:50:00,33.4,32.4,30.02,North,9,0.0,0.0,96,0.00,,,0.00,0,WeatherCatV1.11B39,2013-01-16 08:50:00,
2013-01-16 03:55:00,33.4,32.4,30.02,North,9,0.0,0.0,96,0.00,,,0.00,0,WeatherCatV1.11B39,2013-01-16 08:55:00,
2013-01-16 04:00:00,33.5,32.5,30.00,North,9,0.0,0.0,96,0.00,,,0.00,0,WeatherCatV1.11B39,2013-01-16 09:00:00,
2013-01-16 04:05:00,33.4,32.4,30.00,North,359,1.0,7.0,96,0.00,,,0.00,0,WeatherCatV1.11B39,2013-01-16 09:05:00,
2013-01-16 04:10:00,33.2,32.2,30.00,North,351,3.0,7.0,96,0.00,,,0.00,0,WeatherCatV1.11B39,2013-01-16 09:10:00,
2013-01-16 04:15:00,33.2,32.2,30.00,NNW,348,3.0,5.0,96,0.00,,,0.00,0,WeatherCatV1.11B39,2013-01-16 09:15:00,
2013-01-16 04:20:00,33.4,32.4,30.00,North,350,2.0,4.0,96,0.00,,,0.00,0,WeatherCatV1.11B39,2013-01-16 09:20:00,
2013-01-16 04:25:00,33.2,32.2,30.00,North,352,1.0,0.0,96,0.00,,,0.00,0,WeatherCatV1.11B39,2013-01-16 09:25:00,
2013-01-16 04:30:00,33.2,32.2,29.99,North,353,1.0,1.0,96,0.00,,,0.00,0,WeatherCatV1.11B39,2013-01-16 09:30:00,
2013-01-16 04:35:00,33.4,32.4,29.99,North,352,1.0,0.0,96,0.00,,,0.00,0,WeatherCatV1.11B39,2013-01-16 09:35:00,
2013-01-16 04:40:00,33.5,32.5,29.99,North,352,0.0,3.0,96,0.00,,,0.00,0,WeatherCatV1.11B39,2013-01-16 09:40:00,
2013-01-16 04:45:00,33.5,32.5,29.97,North,352,0.0,3.0,96,0.00,,,0.00,0,WeatherCatV1.11B39,2013-01-16 09:45:00,
2013-01-16 04:56:00,33.5,32.5,29.97,North,354,0.0,0.0,96,0.00,,,0.00,0,WeatherCatV1.11B39,2013-01-16 09:56:00,
2013-01-16 05:01:00,33.4,32.4,29.99,North,350,2.0,3.0,96,0.00,,,0.32,0,WeatherCatV1.11B39,2013-01-16 10:01:00,
2013-01-16 05:06:00,33.2,31.9,29.99,NNW,340,6.0,6.0,95,0.00,,,0.32,0,WeatherCatV1.11B39,2013-01-16 10:06:00,
2013-01-16 05:11:00,33.4,32.4,29.99,NNW,342,6.0,6.0,96,0.00,,,0.32,0,WeatherCatV1.11B39,2013-01-16 10:11:00,
2013-01-16 05:16:00,33.4,32.4,30.00,North,352,2.0,4.0,96,0.00,,,0.32,0,WeatherCatV1.11B39,2013-01-16 10:16:00,
2013-01-16 05:21:00,33.4,32.4,30.00,North,353,2.0,5.0,96,0.00,,,0.32,0,WeatherCatV1.11B39,2013-01-16 10:21:00,
2013-01-16 05:26:00,33.5,32.5,30.00,North,352,0.0,3.0,96,0.00,,,0.32,0,WeatherCatV1.11B39,2013-01-16 10:26:00,
2013-01-16 05:31:00,33.7,32.7,30.01,North,352,0.0,0.0,96,0.00,,,0.33,0,WeatherCatV1.11B39,2013-01-16 10:31:00,
2013-01-16 05:36:00,33.8,32.5,30.01,North,352,0.0,2.0,95,0.00,,,0.33,0,WeatherCatV1.11B39,2013-01-16 10:36:00,
2013-01-16 05:41:00,33.8,32.8,30.01,North,352,0.0,0.0,96,0.00,,,0.33,0,WeatherCatV1.11B39,2013-01-16 10:41:00,
2013-01-16 05:45:00,33.8,32.8,29.99,North,353,0.0,0.0,96,0.00,,,0.00,0,WeatherCatV1.11B39,2013-01-16 10:45:00,
2013-01-16 05:46:00,33.8,32.8,29.99,North,356,0.0,0.0,96,0.00,,,0.33,0,WeatherCatV1.11B39,2013-01-16 10:46:00,
2013-01-16 05:50:00,34.0,33.0,29.99,North,355,0.0,0.0,96,0.00,,,0.00,0,WeatherCatV1.11B39,2013-01-16 10:50:00,
2013-01-16 05:55:00,34.1,33.1,29.99,North,355,0.0,0.0,96,0.00,,,0.00,0,WeatherCatV1.11B39,2013-01-16 10:55:00,
2013-01-16 06:00:00,34.1,33.1,30.00,North,355,1.0,1.0,96,0.00,,,0.00,0,WeatherCatV1.11B39,2013-01-16 11:00:00,
2013-01-16 06:05:00,34.1,32.8,30.00,North,355,1.0,0.0,95,0.00,,,0.00,0,WeatherCatV1.11B39,2013-01-16 11:05:00,
2013-01-16 06:10:00,34.7,33.7,30.00,North,355,0.0,0.0,96,0.00,,,0.00,0,WeatherCatV1.11B39,2013-01-16 11:10:00,
2013-01-16 06:15:00,34.4,33.1,30.00,North,355,0.0,0.0,95,0.00,,,0.00,0,WeatherCatV1.11B39,2013-01-16 11:15:00,
2013-01-16 06:20:00,34.3,33.0,30.00,North,355,0.0,0.0,95,0.00,,,0.00,0,WeatherCatV1.11B39,2013-01-16 11:20:00,
2013-01-16 06:25:00,34.0,32.7,30.00,North,355,0.0,0.0,95,0.00,,,0.00,0,WeatherCatV1.11B39,2013-01-16 11:25:00,
2013-01-16 06:30:00,34.1,32.8,29.99,North,355,0.0,0.0,95,0.00,,,0.00,0,WeatherCatV1.11B39,2013-01-16 11:30:00,
2013-01-16 06:35:00,34.1,32.8,29.99,North,355,0.0,0.0,95,0.00,,,0.00,0,WeatherCatV1.11B39,2013-01-16 11:35:00,
2013-01-16 06:40:00,34.1,32.8,29.99,North,355,0.0,0.0,95,0.00,,,0.00,0,WeatherCatV1.11B39,2013-01-16 11:40:00,
2013-01-16 06:45:00,34.4,33.1,29.99,North,355,0.0,0.0,95,0.00,,,0.00,0,WeatherCatV1.11B39,2013-01-16 11:45:00,
2013-01-16 06:50:00,34.4,33.1,29.99,North,355,0.0,0.0,95,0.00,,,0.00,0,WeatherCatV1.11B39,2013-01-16 11:50:00,
2013-01-16 06:55:00,34.3,33.0,29.99,North,355,0.0,0.0,95,0.00,,,0.00,0,WeatherCatV1.11B39,2013-01-16 11:55:00,
2013-01-16 07:00:00,34.3,33.0,29.97,North,355,0.0,0.0,95,0.00,,,0.00,0,WeatherCatV1.11B39,2013-01-16 12:00:00,
2013-01-16 07:05:00,34.4,33.1,29.97,North,355,0.0,2.0,95,0.00,,,0.00,0,WeatherCatV1.11B39,2013-01-16 12:05:00,
2013-01-16 07:10:00,34.6,33.1,29.97,North,355,0.0,0.0,94,0.00,,,0.00,0,WeatherCatV1.11B39,2013-01-16 12:10:00,
2013-01-16 07:15:00,34.6,33.1,29.96,North,355,0.0,0.0,94,0.00,,,0.00,0,WeatherCatV1.11B39,2013-01-16 12:15:00,
2013-01-16 07:20:00,34.6,33.1,29.96,North,355,0.0,0.0,94,0.04,,,0.00,0,WeatherCatV1.11B39,2013-01-16 12:20:00,
2013-01-16 07:25:00,34.7,33.4,29.96,North,355,0.0,0.0,95,0.09,,,0.00,0,WeatherCatV1.11B39,2013-01-16 12:25:00,
2013-01-16 07:30:00,34.4,33.1,29.96,North,355,0.0,0.0,95,0.08,,,0.00,0,WeatherCatV1.11B39,2013-01-16 12:30:00,
2013-01-16 07:35:00,34.6,33.1,29.96,North,355,0.0,0.0,94,0.08,,,0.00,0,WeatherCatV1.11B39,2013-01-16 12:35:00,
2013-01-16 07:40:00,34.7,33.2,29.96,North,355,0.0,0.0,94,0.06,,,0.00,0,WeatherCatV1.11B39,2013-01-16 12:40:00,
2013-01-16 07:45:00,35.2,33.6,29.96,North,355,0.0,0.0,94,0.05,,,0.00,0,WeatherCatV1.11B39,2013-01-16 12:45:00,
2013-01-16 07:50:00,35.0,33.5,29.96,North,355,0.0,0.0,94,0.05,,,0.00,0,WeatherCatV1.11B39,2013-01-16 12:50:00,
2013-01-16 07:55:00,35.2,33.6,29.96,North,355,0.0,0.0,94,0.05,,,0.00,0,WeatherCatV1.11B39,2013-01-16 12:55:00,
2013-01-16 08:00:00,34.7,32.9,29.95,North,355,0.0,0.0,93,0.00,,,0.00,5,WeatherCatV1.11B39,2013-01-16 13:00:00,
2013-01-16 08:05:00,34.9,33.4,29.95,North,355,0.0,0.0,94,0.00,,,0.00,5,WeatherCatV1.11B39,2013-01-16 13:05:00,
2013-01-16 08:10:00,35.3,33.7,29.95,North,355,0.0,0.0,94,0.00,,,0.00,9,WeatherCatV1.11B39,2013-01-16 13:10:00,
2013-01-16 08:15:00,35.6,34.0,29.96,North,355,0.0,0.0,94,0.05,,,0.00,5,WeatherCatV1.11B39,2013-01-16 13:15:00,
2013-01-16 08:20:00,36.2,34.6,29.96,North,355,0.0,0.0,94,0.05,,,0.00,5,WeatherCatV1.11B39,2013-01-16 13:20:00,
2013-01-16 08:25:00,36.2,34.4,29.96,North,355,0.0,0.0,93,0.05,,,0.00,7,WeatherCatV1.11B39,2013-01-16 13:25:00,
2013-01-16 08:30:00,35.8,33.7,29.95,North,355,0.0,0.0,92,0.00,,,0.00,5,WeatherCatV1.11B39,2013-01-16 13:30:00,
2013-01-16 08:35:00,35.8,33.7,29.95,North,355,0.0,0.0,92,0.00,,,0.00,7,WeatherCatV1.11B39,2013-01-16 13:35:00,
2013-01-16 08:40:00,35.8,34.0,29.95,NNW,335,0.0,2.0,93,0.00,,,0.00,16,WeatherCatV1.11B39,2013-01-16 13:40:00,
2013-01-16 08:45:00,35.9,34.1,29.95,NW,326,0.0,2.0,93,0.00,,,0.00,11,WeatherCatV1.11B39,2013-01-16 13:45:00,
2013-01-16 08:50:00,35.5,33.7,29.95,West,269,1.0,1.0,93,0.00,,,0.00,14,WeatherCatV1.11B39,2013-01-16 13:50:00,
2013-01-16 08:55:00,35.3,33.7,29.95,SW,235,1.0,5.0,94,0.00,,,0.00,16,WeatherCatV1.11B39,2013-01-16 13:55:00,
2013-01-16 09:00:00,35.3,33.7,29.95,SSW,208,1.0,3.0,94,0.00,,,0.00,16,WeatherCatV1.11B39,2013-01-16 14:00:00,
2013-01-16 09:05:00,35.5,33.9,29.95,SSW,199,1.0,0.0,94,0.00,,,0.00,18,WeatherCatV1.11B39,2013-01-16 14:05:00,
2013-01-16 09:10:00,35.3,34.0,29.95,SSW,197,1.0,5.0,95,0.00,,,0.00,18,WeatherCatV1.11B39,2013-01-16 14:10:00,
2013-01-16 09:15:00,35.5,34.2,29.97,SSW,196,1.0,3.0,95,0.00,,,0.00,12,WeatherCatV1.11B39,2013-01-16 14:15:00,
2013-01-16 09:20:00,35.5,34.2,29.97,SSW,196,1.0,3.0,95,0.00,,,0.00,18,WeatherCatV1.11B39,2013-01-16 14:20:00,
2013-01-16 09:25:00,35.3,34.0,29.97,SSW,198,1.0,4.0,95,0.00,,,0.00,16,WeatherCatV1.11B39,2013-01-16 14:25:00,
2013-01-16 09:30:00,35.2,33.9,29.97,SW,232,2.0,3.0,95,0.00,,,0.00,21,WeatherCatV1.11B39,2013-01-16 14:30:00,
2013-01-16 09:35:00,35.3,33.7,29.97,WSW,250,1.0,2.0,94,0.00,,,0.00,32,WeatherCatV1.11B39,2013-01-16 14:35:00,
2013-01-16 09:40:00,35.8,34.5,29.97,WSW,253,1.0,2.0,95,0.00,,,0.00,28,WeatherCatV1.11B39,2013-01-16 14:40:00,
2013-01-16 09:45:00,35.9,34.6,29.96,WSW,255,1.0,2.0,95,0.00,,,0.00,32,WeatherCatV1.11B39,2013-01-16 14:45:00,
2013-01-16 09:50:00,35.9,34.6,29.96,WSW,255,1.0,2.0,95,0.00,,,0.00,37,WeatherCatV1.11B39,2013-01-16 14:50:00,
2013-01-16 09:55:00,35.6,34.0,29.96,WSW,246,1.0,3.0,94,0.00,,,0.00,35,WeatherCatV1.11B39,2013-01-16 14:55:00,
2013-01-16 10:00:00,35.8,34.2,29.97,SW,218,1.0,3.0,94,0.00,,,0.00,32,WeatherCatV1.11B39,2013-01-16 15:00:00,
2013-01-16 10:05:00,35.6,34.0,29.97,SSW,208,2.0,3.0,94,0.00,,,0.00,33,WeatherCatV1.11B39,2013-01-16 15:05:00,
2013-01-16 10:10:00,35.5,34.2,29.97,SSW,206,2.0,3.0,95,0.00,,,0.00,37,WeatherCatV1.11B39,2013-01-16 15:10:00,
2013-01-16 10:15:00,35.3,34.0,29.95,SSW,203,2.0,5.0,95,0.00,,,0.00,42,WeatherCatV1.11B39,2013-01-16 15:15:00,
2013-01-16 10:20:00,35.2,33.4,29.95,South,188,3.0,5.0,93,0.00,,,0.00,42,WeatherCatV1.11B39,2013-01-16 15:20:00,
2013-01-16 10:25:00,35.0,33.5,29.95,South,177,3.0,7.0,94,0.00,,,0.00,51,WeatherCatV1.11B39,2013-01-16 15:25:00,
2013-01-16 10:30:00,35.2,33.6,29.93,South,173,4.0,7.0,94,0.00,,,0.00,56,WeatherCatV1.11B39,2013-01-16 15:30:00,
2013-01-16 10:35:00,35.2,33.6,29.93,South,171,5.0,5.0,94,0.00,,,0.00,49,WeatherCatV1.11B39,2013-01-16 15:35:00,
2013-01-16 10:40:00,35.3,33.7,29.93,South,177,4.0,6.0,94,0.00,,,0.00,39,WeatherCatV1.11B39,2013-01-16 15:40:00,
2013-01-16 10:45:00,35.3,34.0,29.93,South,189,3.0,8.0,95,0.00,,,0.00,35,WeatherCatV1.11B39,2013-01-16 15:45:00,
2013-01-16 10:50:00,35.5,34.2,29.93,South,187,3.0,3.0,95,0.00,,,0.00,37,WeatherCatV1.11B39,2013-01-16 15:50:00,
2013-01-16 10:55:00,35.5,34.2,29.93,South,189,3.0,10.0,95,0.00,,,0.00,40,WeatherCatV1.11B39,2013-01-16 15:55:00,
2013-01-16 11:00:00,35.5,34.2,29.93,SSW,196,4.0,11.0,95,0.00,,,0.00,51,WeatherCatV1.11B39,2013-01-16 16:00:00,
2013-01-16 11:05:00,35.8,34.5,29.93,SSW,205,4.0,9.0,95,0.00,,,0.00,56,WeatherCatV1.11B39,2013-01-16 16:05:00,
2013-01-16 11:19:00,35.6,34.0,29.93,SSW,196,5.0,8.0,94,0.00,,,0.00,55,WeatherCatV1.11B39,2013-01-16 16:19:00,
2013-01-16 11:24:00,35.6,34.0,29.89,SSE,147,3.0,8.0,94,0.00,,,0.44,76,WeatherCatV1.11B39,2013-01-16 16:24:00,
2013-01-16 11:29:00,35.5,34.5,29.89,South,175,7.0,11.0,96,0.00,,,0.44,44,WeatherCatV1.11B39,2013-01-16 16:29:00,
2013-01-16 11:34:00,35.6,34.3,29.84,SSW,193,6.0,7.0,95,0.00,,,0.44,48,WeatherCatV1.11B39,2013-01-16 16:34:00,
2013-01-16 11:39:00,35.6,34.6,29.84,South,176,5.0,8.0,96,0.00,,,0.44,39,WeatherCatV1.11B39,2013-01-16 16:39:00,
2013-01-16 11:44:00,35.8,34.5,29.83,SSW,192,3.0,8.0,95,0.00,,,0.44,37,WeatherCatV1.11B39,2013-01-16 16:44:00,
2013-01-16 11:49:00,36.0,35.0,29.83,South,169,10.0,10.0,96,0.00,,,0.44,40,WeatherCatV1.11B39,2013-01-16 16:49:00,
2013-01-16 11:54:00,36.0,35.0,29.83,SSE,161,6.0,6.0,96,0.00,,,0.44,37,WeatherCatV1.11B39,2013-01-16 16:54:00,
2013-01-16 11:59:00,36.0,35.0,29.83,South,185,3.0,5.0,96,0.00,,,0.44,37,WeatherCatV1.11B39,2013-01-16 16:59:00,
2013-01-16 12:04:00,36.2,34.9,29.82,SSE,164,5.0,7.0,95,0.00,,,0.44,44,WeatherCatV1.11B39,2013-01-16 17:04:00,
2013-01-16 12:09:00,36.3,35.3,29.82,SSE,167,3.0,6.0,96,0.00,,,0.44,35,WeatherCatV1.11B39,2013-01-16 17:09:00,
2013-01-16 12:14:00,36.6,35.6,29.82,WSW,240,2.0,6.0,96,0.00,,,0.44,30,WeatherCatV1.11B39,2013-01-16 17:14:00,
2013-01-16 12:19:00,36.8,35.8,29.83,SSW,212,6.0,6.0,96,0.00,,,0.44,32,WeatherCatV1.11B39,2013-01-16 17:19:00,
2013-01-16 12:24:00,36.9,35.9,29.83,SSW,210,1.0,10.0,96,0.00,,,0.44,33,WeatherCatV1.11B39,2013-01-16 17:24:00,
2013-01-16 12:29:00,36.9,35.3,29.83,SW,226,4.0,6.0,94,0.00,,,0.44,30,WeatherCatV1.11B39,2013-01-16 17:29:00,
2013-01-16 12:34:00,37.0,35.4,29.82,SSW,200,3.0,10.0,94,0.00,,,0.44,26,WeatherCatV1.11B39,2013-01-16 17:34:00,
2013-01-16 12:39:00,37.0,35.7,29.82,South,172,7.0,7.0,95,0.00,,,0.44,21,WeatherCatV1.11B39,2013-01-16 17:39:00,
2013-01-16 12:44:00,37.0,35.7,29.82,SW,229,4.0,6.0,95,0.00,,,0.44,25,WeatherCatV1.11B39,2013-01-16 17:44:00,
2013-01-16 12:49:00,37.2,35.9,29.82,WNW,287,4.0,12.0,95,0.00,,,0.44,16,WeatherCatV1.11B39,2013-01-16 17:49:00,
2013-01-16 12:54:00,37.0,35.7,29.82,WNW,289,6.0,7.0,95,0.00,,,0.44,21,WeatherCatV1.11B39,2013-01-16 17:54:00,
2013-01-16 12:59:00,37.0,35.7,29.82,WSW,239,0.0,0.0,95,0.00,,,0.44,25,WeatherCatV1.11B39,2013-01-16 17:59:00,
2013-01-16 13:04:00,37.0,35.4,29.82,WSW,243,2.0,5.0,94,0.00,,,0.44,23,WeatherCatV1.11B39,2013-01-16 18:04:00,
2013-01-16 13:09:00,37.2,35.6,29.82,SSE,168,2.0,3.0,94,0.00,,,0.44,28,WeatherCatV1.11B39,2013-01-16 18:09:00,
2013-01-16 13:14:00,37.3,35.7,29.82,South,178,1.0,2.0,94,0.00,,,0.44,30,WeatherCatV1.11B39,2013-01-16 18:14:00,
2013-01-16 13:19:00,37.5,35.7,29.82,South,186,1.0,2.0,93,0.00,,,0.44,26,WeatherCatV1.11B39,2013-01-16 18:19:00,
2013-01-16 13:24:00,37.6,36.6,29.82,South,186,1.0,2.0,96,0.00,,,0.44,32,WeatherCatV1.11B39,2013-01-16 18:24:00,
2013-01-16 13:29:00,37.6,35.8,29.82,South,186,1.0,2.0,93,0.00,,,0.44,33,WeatherCatV1.11B39,2013-01-16 18:29:00,
2013-01-16 13:34:00,37.6,36.0,29.82,SSW,200,2.0,3.0,94,0.00,,,0.44,25,WeatherCatV1.11B39,2013-01-16 18:34:00,
2013-01-16 13:39:00,37.5,36.2,29.82,West,277,2.0,5.0,95,0.00,,,0.44,28,WeatherCatV1.11B39,2013-01-16 18:39:00,
2013-01-16 13:44:00,37.6,36.3,29.83,West,277,0.0,0.0,95,0.00,,,0.44,30,WeatherCatV1.11B39,2013-01-16 18:44:00,
2013-01-16 13:49:00,37.9,36.6,29.83,West,277,0.0,0.0,95,0.00,,,0.44,39,WeatherCatV1.11B39,2013-01-16 18:49:00,
2013-01-16 13:54:00,37.9,36.3,29.83,West,277,0.0,0.0,94,0.00,,,0.44,25,WeatherCatV1.11B39,2013-01-16 18:54:00,
2013-01-16 13:59:00,38.0,36.4,29.85,West,277,0.0,0.0,94,0.00,,,0.44,21,WeatherCatV1.11B39,2013-01-16 18:59:00,
2013-01-16 14:04:00,38.2,36.4,29.85,West,277,0.0,0.0,93,0.00,,,0.44,21,WeatherCatV1.11B39,2013-01-16 19:04:00,
2013-01-16 14:09:00,38.0,36.2,29.85,West,277,0.0,0.0,93,0.00,,,0.44,32,WeatherCatV1.11B39,2013-01-16 19:09:00,
2013-01-16 14:14:00,38.2,36.4,29.84,West,277,0.0,0.0,93,0.00,,,0.44,33,WeatherCatV1.11B39,2013-01-16 19:14:00,
2013-01-16 14:19:00,38.2,36.4,29.84,West,277,0.0,0.0,93,0.00,,,0.44,37,WeatherCatV1.11B39,2013-01-16 19:19:00,
2013-01-16 14:24:00,38.5,36.7,29.84,West,277,0.0,0.0,93,0.00,,,0.44,37,WeatherCatV1.11B39,2013-01-16 19:24:00,
2013-01-16 14:29:00,38.6,36.8,29.85,West,277,0.0,0.0,93,0.00,,,0.44,33,WeatherCatV1.11B39,2013-01-16 19:29:00,
2013-01-16 14:34:00,38.5,36.4,29.85,West,277,0.0,0.0,92,0.00,,,0.44,28,WeatherCatV1.11B39,2013-01-16 19:34:00,
2013-01-16 14:39:00,38.6,36.5,29.85,West,277,0.0,0.0,92,0.00,,,0.44,32,WeatherCatV1.11B39,2013-01-16 19:39:00,
2013-01-16 14:44:00,38.6,36.5,29.84,West,267,0.0,2.0,92,0.00,,,0.44,32,WeatherCatV1.11B39,2013-01-16 19:44:00,
2013-01-16 14:49:00,38.6,36.5,29.84,West,265,1.0,1.0,92,0.00,,,0.44,23,WeatherCatV1.11B39,2013-01-16 19:49:00,
2013-01-16 14:54:00,38.9,36.8,29.84,West,265,0.0,0.0,92,0.00,,,0.44,21,WeatherCatV1.11B39,2013-01-16 19:54:00,
2013-01-16 14:59:00,39.1,37.0,29.84,West,265,0.0,0.0,92,0.00,,,0.44,21,WeatherCatV1.11B39,2013-01-16 19:59:00,
2013-01-16 15:04:00,39.1,37.2,29.84,West,265,1.0,2.0,93,0.00,,,0.44,18,WeatherCatV1.11B39,2013-01-16 20:04:00,
2013-01-16 15:09:00,39.1,37.0,29.84,West,265,0.0,2.0,92,0.00,,,0.44,21,WeatherCatV1.11B39,2013-01-16 20:09:00,
2013-01-16 15:14:00,38.8,36.4,29.86,SSW,209,2.0,5.0,91,0.00,,,0.44,25,WeatherCatV1.11B39,2013-01-16 20:14:00,
2013-01-16 15:19:00,38.8,36.7,29.86,SSW,206,1.0,3.0,92,0.00,,,0.44,19,WeatherCatV1.11B39,2013-01-16 20:19:00,
2013-01-16 15:24:00,38.6,36.5,29.86,South,191,1.0,4.0,92,0.00,,,0.44,25,WeatherCatV1.11B39,2013-01-16 20:24:00,
2013-01-16 15:29:00,38.5,36.4,29.86,SSW,193,5.0,5.0,92,0.00,,,0.44,19,WeatherCatV1.11B39,2013-01-16 20:29:00,
2013-01-16 15:34:00,38.3,36.2,29.86,South,172,0.0,4.0,92,0.00,,,0.44,23,WeatherCatV1.11B39,2013-01-16 20:34:00,
2013-01-16 15:39:00,38.3,36.5,29.86,South,175,3.0,5.0,93,0.00,,,0.44,19,WeatherCatV1.11B39,2013-01-16 20:39:00,
2013-01-16 15:44:00,38.2,36.6,29.85,SSE,162,2.0,5.0,94,0.00,,,0.44,19,WeatherCatV1.11B39,2013-01-16 20:44:00,
2013-01-16 15:49:00,37.9,36.3,29.85,SSE,164,5.0,6.0,94,0.00,,,0.44,14,WeatherCatV1.11B39,2013-01-16 20:49:00,
2013-01-16 15:54:00,37.9,36.3,29.85,South,172,2.0,7.0,94,0.00,,,0.44,12,WeatherCatV1.11B39,2013-01-16 20:54:00,
2013-01-16 15:59:00,37.9,36.6,29.86,SSE,164,5.0,5.0,95,0.00,,,0.44,9,WeatherCatV1.11B39,2013-01-16 20:59:00,
2013-01-16 16:04:00,37.9,36.3,29.86,South,191,6.0,7.0,94,0.00,,,0.44,11,WeatherCatV1.11B39,2013-01-16 21:04:00,
2013-01-16 16:09:00,37.8,36.2,29.86,SSE,155,7.0,8.0,94,0.00,,,0.44,11,WeatherCatV1.11B39,2013-01-16 21:09:00,
2013-01-16 16:14:00,37.8,36.0,29.85,SSE,164,6.0,7.0,93,0.00,,,0.44,11,WeatherCatV1.11B39,2013-01-16 21:14:00,
2013-01-16 16:19:00,37.9,36.3,29.85,South,176,3.0,9.0,94,0.00,,,0.44,11,WeatherCatV1.11B39,2013-01-16 21:19:00,
2013-01-16 16:24:00,37.9,36.1,29.85,SSE,151,7.0,10.0,93,0.00,,,0.44,11,WeatherCatV1.11B39,2013-01-16 21:24:00,
2013-01-16 16:29:00,37.9,36.3,29.87,SSE,160,5.0,8.0,94,0.00,,,0.44,11,WeatherCatV1.11B39,2013-01-16 21:29:00,
2013-01-16 16:34:00,38.0,36.4,29.87,SSE,162,1.0,6.0,94,0.00,,,0.44,5,WeatherCatV1.11B39,2013-01-16 21:34:00,
2013-01-16 16:39:00,38.0,36.7,29.87,South,176,4.0,7.0,95,0.00,,,0.44,5,WeatherCatV1.11B39,2013-01-16 21:39:00,
2013-01-16 16:44:00,38.0,35.9,29.88,SSE,160,3.0,6.0,92,0.00,,,0.44,5,WeatherCatV1.11B39,2013-01-16 21:44:00,
2013-01-16 16:49:00,38.2,36.4,29.88,SSE,160,1.0,5.0,93,0.00,,,0.44,0,WeatherCatV1.11B39,2013-01-16 21:49:00,
2013-01-16 16:54:00,38.2,36.6,29.88,SSE,155,4.0,4.0,94,0.00,,,0.44,0,WeatherCatV1.11B39,2013-01-16 21:54:00,
2013-01-16 16:59:00,38.2,36.6,29.88,ESE,109,4.0,5.0,94,0.00,,,0.44,0,WeatherCatV1.11B39,2013-01-16 21:59:00,
2013-01-16 17:04:00,38.3,36.5,29.88,ESE,121,5.0,6.0,93,0.00,,,0.44,0,WeatherCatV1.11B39,2013-01-16 22:04:00,
2013-01-16 17:09:00,38.5,36.4,29.88,SE,134,0.0,3.0,92,0.00,,,0.44,0,WeatherCatV1.11B39,2013-01-16 22:09:00,
2013-01-16 17:14:00,38.6,36.5,29.89,SE,131,3.0,5.0,92,0.00,,,0.44,0,WeatherCatV1.11B39,2013-01-16 22:14:00,
2013-01-16 17:19:00,38.6,36.8,29.89,SE,143,0.0,0.0,93,0.00,,,0.44,0,WeatherCatV1.11B39,2013-01-16 22:19:00,
2013-01-16 17:24:00,38.8,36.7,29.89,SSE,167,4.0,5.0,92,0.00,,,0.44,0,WeatherCatV1.11B39,2013-01-16 22:24:00,
2013-01-16 17:29:00,38.9,36.5,29.89,South,184,0.0,6.0,91,0.00,,,0.44,0,WeatherCatV1.11B39,2013-01-16 22:29:00,
2013-01-16 17:34:00,39.1,36.7,29.89,South,184,2.0,5.0,91,0.00,,,0.44,0,WeatherCatV1.11B39,2013-01-16 22:34:00,
2013-01-16 17:39:00,39.2,37.1,29.89,South,184,0.0,4.0,92,0.00,,,0.44,0,WeatherCatV1.11B39,2013-01-16 22:39:00,
2013-01-16 17:44:00,39.3,37.2,29.89,South,184,0.0,5.0,92,0.00,,,0.44,0,WeatherCatV1.11B39,2013-01-16 22:44:00,
2013-01-16 17:49:00,39.2,37.3,29.89,South,169,3.0,6.0,93,0.00,,,0.44,0,WeatherCatV1.11B39,2013-01-16 22:49:00,
2013-01-16 17:54:00,39.3,37.2,29.89,SSE,164,2.0,5.0,92,0.00,,,0.44,0,WeatherCatV1.11B39,2013-01-16 22:54:00,
2013-01-16 17:59:00,39.5,37.4,29.89,SSE,164,2.0,2.0,92,0.00,,,0.44,0,WeatherCatV1.11B39,2013-01-16 22:59:00,
2013-01-16 18:04:00,39.5,37.4,29.89,SSE,164,0.0,0.0,92,0.00,,,0.44,0,WeatherCatV1.11B39,2013-01-16 23:04:00,
2013-01-16 18:09:00,39.9,37.5,29.89,South,189,1.0,2.0,91,0.00,,,0.44,0,WeatherCatV1.11B39,2013-01-16 23:09:00,
2013-01-16 18:14:00,40.9,37.0,29.89,WNW,295,2.0,5.0,86,0.00,,,0.44,0,WeatherCatV1.11B39,2013-01-16 23:14:00,
2013-01-16 18:19:00,41.6,37.1,29.89,WNW,298,1.0,2.0,84,0.00,,,0.44,0,WeatherCatV1.11B39,2013-01-16 23:19:00,
2013-01-16 18:24:00,41.9,37.4,29.89,WNW,298,2.0,2.0,84,0.00,,,0.44,0,WeatherCatV1.11B39,2013-01-16 23:24:00,
2013-01-16 18:29:00,41.6,37.1,29.88,NNW,347,0.0,2.0,84,0.00,,,0.44,0,WeatherCatV1.11B39,2013-01-16 23:29:00,
2013-01-16 18:34:00,41.9,37.1,29.88,WNW,296,0.0,0.0,83,0.00,,,0.44,0,WeatherCatV1.11B39,2013-01-16 23:34:00,
2013-01-16 18:39:00,41.3,37.1,29.88,NNW,337,0.0,5.0,85,0.00,,,0.44,0,WeatherCatV1.11B39,2013-01-16 23:39:00,
2013-01-16 18:44:00,40.8,37.5,29.89,East,82,0.0,0.0,88,0.00,,,0.44,0,WeatherCatV1.11B39,2013-01-16 23:44:00,
2013-01-16 18:49:00,40.5,37.2,29.89,East,96,0.0,0.0,88,0.00,,,0.44,0,WeatherCatV1.11B39,2013-01-16 23:49:00,
2013-01-16 18:54:00,40.2,37.2,29.89,SE,138,2.0,5.0,89,0.00,,,0.44,0,WeatherCatV1.11B39,2013-01-16 23:54:00,
2013-01-16 18:59:00,39.9,37.2,29.90,SE,144,5.0,5.0,90,0.00,,,0.44,0,WeatherCatV1.11B39,2013-01-16 23:59:00,
2013-01-16 19:04:00,39.8,37.4,29.90,South,171,3.0,7.0,91,0.00,,,0.44,0,WeatherCatV1.11B39,2013-01-17 00:04:00,
2013-01-16 19:09:00,39.8,37.7,29.90,SSE,167,1.0,4.0,92,0.00,,,0.44,0,WeatherCatV1.11B39,2013-01-17 00:09:00,
2013-01-16 19:14:00,39.6,37.7,29.90,SSE,167,0.0,0.0,93,0.00,,,0.44,0,WeatherCatV1.11B39,2013-01-17 00:14:00,
2013-01-16 19:19:00,40.3,38.2,29.90,WNW,284,1.0,8.0,92,0.00,,,0.44,0,WeatherCatV1.11B39,2013-01-17 00:19:00,
2013-01-16 19:24:00,42.3,36.9,29.90,West,263,7.0,10.0,81,0.00,,,0.44,0,WeatherCatV1.11B39,2013-01-17 00:24:00,
2013-01-16 19:29:00,44.5,36.7,29.89,WSW,244,5.0,9.0,74,0.00,,,0.44,0,WeatherCatV1.11B39,2013-01-17 00:29:00,
2013-01-16 19:34:00,45.2,37.1,29.89,WSW,247,5.0,10.0,73,0.00,,,0.44,0,WeatherCatV1.11B39,2013-01-17 00:34:00,
2013-01-16 19:39:00,45.4,37.3,29.89,WNW,296,4.0,12.0,73,0.00,,,0.44,0,WeatherCatV1.11B39,2013-01-17 00:39:00,
2013-01-16 19:44:00,45.5,36.7,29.90,WSW,248,3.0,11.0,71,0.00,,,0.44,0,WeatherCatV1.11B39,2013-01-17 00:44:00,
2013-01-16 19:49:00,45.7,37.2,29.90,WSW,246,5.0,8.0,72,0.00,,,0.44,0,WeatherCatV1.11B39,2013-01-17 00:49:00,
2013-01-16 19:54:00,45.7,37.5,29.90,West,261,5.0,7.0,73,0.00,,,0.44,0,WeatherCatV1.11B39,2013-01-17 00:54:00,
2013-01-16 19:59:00,45.2,37.4,29.89,South,188,3.0,6.0,74,0.00,,,0.44,0,WeatherCatV1.11B39,2013-01-17 00:59:00,
2013-01-16 20:04:00,43.9,38.5,29.89,South,186,2.0,2.0,81,0.00,,,0.44,0,WeatherCatV1.11B39,2013-01-17 01:04:00,
2013-01-16 20:09:00,42.6,38.1,29.89,South,186,0.0,3.0,84,0.00,,,0.44,0,WeatherCatV1.11B39,2013-01-17 01:09:00,
2013-01-16 20:14:00,41.9,38.3,29.89,South,186,0.0,0.0,87,0.00,,,0.44,0,WeatherCatV1.11B39,2013-01-17 01:14:00,
2013-01-16 20:19:00,40.9,37.9,29.89,SSE,152,0.0,0.0,89,0.00,,,0.44,0,WeatherCatV1.11B39,2013-01-17 01:19:00,
2013-01-16 20:24:00,40.5,37.8,29.89,SSE,152,0.0,0.0,90,0.00,,,0.44,0,WeatherCatV1.11B39,2013-01-17 01:24:00,
2013-01-16 20:29:00,40.2,37.8,29.89,SSE,152,3.0,3.0,91,0.00,,,0.44,0,WeatherCatV1.11B39,2013-01-17 01:29:00,
2013-01-16 20:34:00,40.1,38.0,29.89,SSE,168,0.0,0.0,92,0.00,,,0.44,0,WeatherCatV1.11B39,2013-01-17 01:34:00,
2013-01-16 20:39:00,40.1,38.0,29.89,SSE,168,0.0,0.0,92,0.00,,,0.44,0,WeatherCatV1.11B39,2013-01-17 01:39:00,
2013-01-16 20:44:00,39.9,37.8,29.91,SSE,155,1.0,5.0,92,0.00,,,0.44,0,WeatherCatV1.11B39,2013-01-17 01:44:00,
2013-01-16 20:49:00,40.1,38.2,29.91,SSE,155,2.0,2.0,93,0.00,,,0.44,0,WeatherCatV1.11B39,2013-01-17 01:49:00,
2013-01-16 20:54:00,39.8,37.9,29.91,SSE,155,0.0,0.0,93,0.00,,,0.44,0,WeatherCatV1.11B39,2013-01-17 01:54:00,
2013-01-16 20:59:00,39.8,37.9,29.89,SSE,150,0.0,0.0,93,0.00,,,0.44,0,WeatherCatV1.11B39,2013-01-17 01:59:00,
2013-01-16 21:04:00,39.8,38.2,29.89,SE,127,5.0,6.0,94,0.00,,,0.44,0,WeatherCatV1.11B39,2013-01-17 02:04:00,
2013-01-16 21:09:00,39.8,38.2,29.89,SE,141,3.0,6.0,94,0.00,,,0.44,0,WeatherCatV1.11B39,2013-01-17 02:09:00,
2013-01-16 21:14:00,39.9,38.3,29.90,SE,141,1.0,2.0,94,0.00,,,0.44,0,WeatherCatV1.11B39,2013-01-17 02:14:00,
2013-01-16 21:19:00,40.1,38.2,29.90,SE,141,1.0,3.0,93,0.00,,,0.44,0,WeatherCatV1.11B39,2013-01-17 02:19:00,
2013-01-16 21:24:00,40.2,38.3,29.90,SE,141,0.0,0.0,93,0.00,,,0.44,0,WeatherCatV1.11B39,2013-01-17 02:24:00,
2013-01-16 21:29:00,40.2,38.3,29.89,SE,141,0.0,0.0,93,0.00,,,0.44,0,WeatherCatV1.11B39,2013-01-17 02:29:00,
2013-01-16 21:34:00,40.2,38.3,29.89,SE,141,0.0,0.0,93,0.00,,,0.44,0,WeatherCatV1.11B39,2013-01-17 02:34:00,
2013-01-16 21:39:00,40.1,38.2,29.89,SE,141,0.0,0.0,93,0.00,,,0.44,0,WeatherCatV1.11B39,2013-01-17 02:39:00,
2013-01-16 21:44:00,40.3,38.4,29.90,SE,141,0.0,0.0,93,0.00,,,0.44,0,WeatherCatV1.11B39,2013-01-17 02:44:00,
2013-01-16 21:49:00,40.6,38.7,29.90,SE,141,0.0,0.0,93,0.00,,,0.44,0,WeatherCatV1.11B39,2013-01-17 02:49:00,
2013-01-16 21:54:00,40.8,38.7,29.90,SE,141,0.0,0.0,92,0.00,,,0.44,0,WeatherCatV1.11B39,2013-01-17 02:54:00,
2013-01-16 21:59:00,41.2,38.8,29.91,WSW,258,1.0,5.0,91,0.00,,,0.44,0,WeatherCatV1.11B39,2013-01-17 02:59:00,
2013-01-16 22:04:00,42.9,38.1,29.91,WSW,250,2.0,8.0,83,0.00,,,0.44,0,WeatherCatV1.11B39,2013-01-17 03:04:00,
2013-01-16 22:09:00,44.3,37.9,29.91,West,277,5.0,8.0,78,0.00,,,0.44,0,WeatherCatV1.11B39,2013-01-17 03:09:00,
2013-01-16 22:14:00,45.2,37.8,29.90,West,277,5.0,10.0,75,0.00,,,0.44,0,WeatherCatV1.11B39,2013-01-17 03:14:00,
2013-01-16 22:19:00,45.4,37.9,29.90,WSW,258,2.0,8.0,75,0.00,,,0.44,0,WeatherCatV1.11B39,2013-01-17 03:19:00,
2013-01-16 22:24:00,45.4,37.6,29.90,West,261,2.0,7.0,74,0.00,,,0.44,0,WeatherCatV1.11B39,2013-01-17 03:24:00,
2013-01-16 22:29:00,45.4,37.6,29.89,NW,304,9.0,10.0,74,0.00,,,0.44,0,WeatherCatV1.11B39,2013-01-17 03:29:00,
2013-01-16 22:34:00,45.4,37.6,29.89,West,281,4.0,7.0,74,0.00,,,0.44,0,WeatherCatV1.11B39,2013-01-17 03:34:00,
2013-01-16 22:39:00,45.4,37.3,29.89,WNW,292,5.0,10.0,73,0.00,,,0.44,0,WeatherCatV1.11B39,2013-01-17 03:39:00,
2013-01-16 22:44:00,45.4,36.6,29.90,NW,309,12.0,14.0,71,0.00,,,0.44,0,WeatherCatV1.11B39,2013-01-17 03:44:00,
2013-01-16 22:49:00,45.7,35.8,29.90,West,278,5.0,13.0,68,0.00,,,0.44,0,WeatherCatV1.11B39,2013-01-17 03:49:00,
2013-01-16 22:54:00,45.7,36.5,29.90,WNW,284,5.0,10.0,70,0.00,,,0.44,0,WeatherCatV1.11B39,2013-01-17 03:54:00,
2013-01-16 22:59:00,45.5,36.7,29.90,West,264,7.0,11.0,71,0.00,,,0.44,0,WeatherCatV1.11B39,2013-01-17 03:59:00,
2013-01-16 23:04:00,45.4,36.2,29.90,West,260,4.0,7.0,70,0.00,,,0.44,0,WeatherCatV1.11B39,2013-01-17 04:04:00,
2013-01-16 23:09:00,45.2,36.0,29.90,West,278,6.0,10.0,70,0.00,,,0.44,0,WeatherCatV1.11B39,2013-01-17 04:09:00,
2013-01-16 23:14:00,45.4,35.5,29.91,West,274,9.0,12.0,68,0.00,,,0.44,0,WeatherCatV1.11B39,2013-01-17 04:14:00,
2013-01-16 23:19:00,45.5,35.6,29.91,West,275,10.0,14.0,68,0.00,,,0.44,0,WeatherCatV1.11B39,2013-01-17 04:19:00,
2013-01-16 23:24:00,45.4,35.1,29.91,WNW,289,5.0,10.0,67,0.00,,,0.44,0,WeatherCatV1.11B39,2013-01-17 04:24:00,
2013-01-16 23:29:00,45.4,35.1,29.89,WNW,291,10.0,13.0,67,0.00,,,0.44,0,WeatherCatV1.11B39,2013-01-17 04:29:00,
2013-01-16 23:34:00,45.4,35.1,29.89,WNW,289,12.0,14.0,67,0.00,,,0.44,0,WeatherCatV1.11B39,2013-01-17 04:34:00,
2013-01-16 23:39:00,45.2,34.5,29.89,WNW,295,7.0,17.0,66,0.00,,,0.44,0,WeatherCatV1.11B39,2013-01-17 04:39:00,
2013-01-16 23:44:00,45.2,34.1,29.89,West,261,7.0,13.0,65,0.00,,,0.44,0,WeatherCatV1.11B39,2013-01-17 04:44:00,
2013-01-16 23:49:00,45.1,34.0,29.89,West,265,7.0,11.0,65,0.00,,,0.44,0,WeatherCatV1.11B39,2013-01-17 04:49:00,
2013-01-16 23:54:00,45.1,33.7,29.89,WNW,282,10.0,14.0,64,0.00,,,0.44,0,WeatherCatV1.11B39,2013-01-17 04:54:00,
2013-01-16 23:59:00,45.1,34.4,29.87,WNW,295,10.0,16.0,66,0.00,,,0.44,0,WeatherCatV1.11B39,2013-01-17 04:59:00,